createdAt,value
2023-01-12T00:03:10.032Z,4.61
2023-01-12T00:08:10.409Z,4.54
2023-01-12T00:13:09.562Z,4.47
2023-01-12T00:18:09.443Z,4.41
2023-01-12T00:23:12.540Z,4.37
2023-01-12T00:28:11.892Z,4.35
2023-01-12T00:33:10.895Z,4.32
2023-01-12T00:38:10.124Z,4.30
2023-01-12T00:43:26.863Z,4.28
2023-01-12T00:48:26.683Z,4.27
2023-01-12T00:53:25.687Z,4.27
2023-01-12T00:58:24.907Z,4.27
2023-01-12T01:03:24.302Z,4.29
2023-01-12T01:08:23.500Z,4.30
2023-01-12T01:13:22.487Z,4.30
2023-01-12T01:18:21.880Z,4.31
2023-01-12T01:23:20.915Z,4.32
2023-01-12T01:28:21.944Z,4.34
2023-01-12T01:33:21.145Z,4.35
2023-01-12T01:38:20.290Z,4.37
2023-01-12T01:43:23.684Z,4.39
2023-01-12T01:48:22.809Z,4.40
2023-01-12T01:53:26.857Z,4.42
2023-01-12T01:58:33.679Z,4.46
2023-01-12T02:03:36.793Z,4.48
2023-01-12T02:08:46.869Z,4.52
2023-01-12T02:14:03.486Z,4.55
2023-01-12T02:19:25.358Z,4.59
2023-01-12T02:25:08.560Z,4.63
2023-01-12T02:30:49.639Z,4.67
2023-01-12T02:35:58.068Z,4.71
2023-01-12T02:41:11.199Z,4.73
2023-01-12T02:46:21.038Z,4.75
2023-01-12T02:51:29.256Z,4.75
2023-01-12T02:56:34.795Z,4.76
2023-01-12T03:01:35.672Z,4.79
2023-01-12T03:06:47.107Z,4.80
2023-01-12T03:11:51.955Z,4.82
2023-01-12T03:16:52.681Z,4.84
2023-01-12T03:21:56.957Z,4.86
2023-01-12T03:27:03.720Z,4.89
2023-01-12T03:32:03.967Z,4.92
2023-01-12T03:37:16.980Z,4.94
2023-01-12T03:42:25.207Z,4.96
2023-01-12T03:47:30.267Z,4.99
2023-01-12T03:52:32.406Z,5.03
2023-01-12T03:57:32.979Z,5.08
2023-01-12T04:02:32.792Z,5.13
2023-01-12T04:07:32.086Z,5.18
2023-01-12T04:12:31.439Z,5.24
2023-01-12T04:17:30.801Z,5.30
2023-01-12T04:22:45.529Z,5.35
2023-01-12T04:27:49.782Z,5.39
2023-01-12T04:32:49.972Z,5.44
2023-01-12T04:37:50.005Z,5.48
2023-01-12T04:43:07.304Z,5.54
2023-01-12T04:48:10.473Z,5.61
2023-01-12T04:53:13.490Z,5.68
2023-01-12T04:58:13.633Z,5.76
2023-01-12T05:03:17.140Z,5.85
2023-01-12T05:08:34.203Z,5.94
2023-01-12T05:13:35.088Z,6.04
2023-01-12T05:18:34.680Z,6.12
2023-01-12T05:23:33.997Z,6.18
2023-01-12T05:28:34.229Z,6.24
2023-01-12T05:33:34.003Z,6.28
2023-01-12T05:38:33.700Z,6.33
2023-01-12T05:43:52.558Z,6.37
2023-01-12T05:48:53.680Z,6.42
2023-01-12T05:53:53.160Z,6.46
2023-01-12T05:58:57.275Z,6.49
2023-01-12T06:03:58.805Z,6.53
2023-01-12T06:08:59.305Z,6.58
2023-01-12T06:13:59.447Z,6.63
2023-01-12T06:18:58.865Z,6.66
2023-01-12T06:23:59.170Z,6.70
2023-01-12T06:28:58.182Z,6.73
2023-01-12T06:33:57.536Z,6.77
2023-01-12T06:38:56.294Z,6.80
2023-01-12T06:43:55.183Z,6.82
2023-01-12T06:48:56.077Z,6.85
2023-01-12T06:53:55.464Z,6.87
2023-01-12T06:58:54.757Z,6.89
2023-01-12T07:03:56.376Z,6.93
2023-01-12T07:08:56.280Z,6.96
2023-01-12T07:13:56.432Z,7.00
2023-01-12T07:18:56.074Z,7.02
2023-01-12T07:23:55.866Z,7.05
2023-01-12T07:28:56.497Z,7.07
2023-01-12T07:33:58.021Z,7.09
2023-01-12T07:38:57.177Z,7.13
2023-01-12T07:43:57.047Z,7.16
2023-01-12T07:48:56.859Z,7.21
2023-01-12T07:53:56.180Z,7.26
2023-01-12T07:58:55.164Z,7.30
2023-01-12T08:03:54.588Z,7.33
2023-01-12T08:08:56.063Z,7.37
2023-01-12T08:13:59.632Z,7.41
2023-01-12T08:19:03.401Z,7.44
2023-01-12T08:24:07.440Z,7.46
2023-01-12T08:29:14.078Z,7.48
2023-01-12T08:34:14.615Z,7.49
2023-01-12T08:39:14.946Z,7.49
2023-01-12T08:44:15.536Z,7.51
2023-01-12T08:49:16.777Z,7.54
2023-01-12T08:54:19.279Z,7.59
2023-01-12T08:59:19.329Z,7.64
2023-01-12T09:04:18.662Z,7.72
2023-01-12T09:09:21.112Z,7.84
2023-01-12T09:14:21.314Z,7.97
2023-01-12T09:19:20.503Z,8.10
2023-01-12T09:24:20.310Z,8.18
2023-01-12T09:29:20.662Z,8.31
2023-01-12T09:34:19.947Z,8.31
2023-01-12T09:39:27.889Z,8.24
2023-01-12T09:44:51.002Z,8.29
2023-01-12T09:50:04.609Z,8.46
2023-01-12T09:55:11.761Z,8.61
2023-01-12T10:00:17.881Z,8.78
2023-01-12T10:05:39.533Z,9.03
2023-01-12T10:10:39.487Z,9.26
2023-01-12T10:15:53.716Z,9.44
2023-01-12T10:20:53.650Z,9.66
2023-01-12T10:26:01.674Z,9.81
2023-01-12T10:31:02.642Z,10.03
2023-01-12T10:36:06.163Z,10.24
2023-01-12T10:41:18.119Z,10.35
2023-01-12T10:46:21.655Z,10.52
2023-01-12T10:51:49.822Z,10.71
2023-01-12T10:56:59.008Z,10.87
2023-01-12T11:02:18.144Z,11.09
2023-01-12T11:07:22.043Z,11.43
2023-01-12T11:12:32.634Z,11.73
2023-01-12T11:17:51.489Z,12.04
2023-01-12T11:22:56.750Z,12.24
2023-01-12T11:28:03.762Z,12.31
2023-01-12T11:33:12.143Z,12.47
2023-01-12T11:38:19.422Z,12.72
2023-01-12T11:43:51.583Z,12.79
2023-01-12T11:49:12.774Z,12.78
2023-01-12T11:54:18.098Z,12.64
2023-01-12T11:59:27.536Z,12.57
2023-01-12T12:04:53.458Z,12.55
2023-01-12T12:10:18.714Z,12.58
2023-01-12T12:15:32.031Z,12.67
2023-01-12T12:20:48.942Z,12.66
2023-01-12T12:26:02.359Z,12.61
2023-01-12T12:31:25.288Z,12.57
2023-01-12T12:36:37.266Z,12.65
2023-01-12T12:42:05.053Z,12.78
2023-01-12T12:47:41.765Z,12.76
2023-01-12T12:52:41.741Z,12.34
2023-01-12T12:58:05.876Z,11.86
2023-01-12T13:03:05.180Z,11.34
2023-01-12T13:08:05.557Z,10.96
2023-01-12T13:13:26.244Z,10.80
2023-01-12T13:19:03.613Z,10.89
2023-01-12T13:24:29.836Z,11.15
2023-01-12T13:29:45.522Z,11.52
2023-01-12T13:34:48.269Z,11.85
2023-01-12T13:39:59.618Z,11.99
2023-01-12T13:44:58.928Z,12.40
2023-01-12T13:50:03.901Z,12.31
2023-01-12T13:55:04.507Z,12.05
2023-01-12T14:00:09.269Z,11.71
2023-01-12T14:05:49.964Z,11.41
2023-01-12T14:11:01.445Z,11.06
2023-01-12T14:16:31.961Z,10.74
2023-01-12T14:21:34.241Z,10.54
2023-01-12T14:26:37.925Z,10.25
2023-01-12T14:31:41.524Z,9.89
2023-01-12T14:36:46.670Z,9.54
2023-01-12T14:42:10.278Z,9.19
2023-01-12T14:47:10.834Z,8.85
2023-01-12T14:52:33.597Z,8.60
2023-01-12T14:57:37.944Z,8.37
2023-01-12T15:02:41.387Z,8.17
2023-01-12T15:07:53.759Z,8.01
2023-01-12T15:12:55.576Z,7.86
2023-01-12T15:18:14.676Z,7.72
2023-01-12T15:23:42.197Z,7.60
2023-01-12T15:28:42.337Z,7.48
2023-01-12T15:33:40.907Z,7.37
2023-01-12T15:38:40.088Z,7.27
2023-01-12T15:43:39.879Z,7.17
2023-01-12T15:48:39.022Z,7.07
2023-01-12T15:53:38.406Z,6.98
2023-01-12T15:58:37.905Z,6.90
2023-01-12T16:04:04.940Z,6.81
2023-01-12T16:08:56.547Z,6.75
2023-01-12T16:13:55.949Z,6.72
2023-01-12T16:19:00.140Z,6.69
2023-01-12T16:23:59.385Z,6.69
2023-01-12T16:28:59.260Z,6.70
2023-01-12T16:33:58.917Z,6.71
2023-01-12T16:39:00.652Z,6.72
2023-01-12T16:44:03.428Z,6.69
2023-01-12T16:49:05.418Z,6.64
2023-01-12T16:54:05.040Z,6.58
2023-01-12T16:59:04.626Z,6.52
2023-01-12T17:04:05.616Z,6.47
2023-01-12T17:09:07.799Z,6.41
2023-01-12T17:14:23.138Z,6.36
2023-01-12T17:19:24.345Z,6.30
2023-01-12T17:24:24.952Z,6.24
2023-01-12T17:29:27.082Z,6.17
2023-01-12T17:34:29.950Z,6.12
2023-01-12T17:39:29.378Z,6.09
2023-01-12T17:44:28.701Z,6.06
2023-01-12T17:49:29.088Z,6.03
2023-01-12T17:54:28.449Z,6.01
2023-01-12T17:59:28.340Z,5.99
2023-01-12T18:04:27.513Z,5.98
2023-01-12T18:09:27.970Z,5.96
2023-01-12T18:14:27.623Z,5.95
2023-01-12T18:19:27.817Z,5.92
2023-01-12T18:24:27.253Z,5.92
2023-01-12T18:29:26.878Z,5.92
2023-01-12T18:34:27.500Z,5.92
2023-01-12T18:39:26.954Z,5.92
2023-01-12T18:44:27.769Z,5.91
2023-01-12T18:49:30.328Z,5.89
2023-01-12T18:54:32.933Z,5.88
2023-01-12T18:59:35.624Z,5.87
2023-01-12T19:04:57.061Z,5.88
2023-01-12T19:09:57.099Z,5.89
2023-01-12T19:15:14.548Z,5.90
2023-01-12T19:20:17.353Z,5.90
2023-01-12T19:25:40.304Z,5.90
2023-01-12T19:30:41.446Z,5.92
2023-01-12T19:35:42.189Z,5.93
2023-01-12T19:40:49.518Z,5.99
2023-01-12T19:45:50.971Z,6.06
2023-01-12T19:50:51.014Z,6.14
2023-01-12T19:55:51.604Z,6.20
2023-01-12T20:00:51.665Z,6.26
2023-01-12T20:05:52.542Z,6.30
2023-01-12T20:10:59.164Z,6.34
2023-01-12T20:15:58.991Z,6.38
2023-01-12T20:21:00.789Z,6.41
2023-01-12T20:26:01.015Z,6.46
2023-01-12T20:31:01.634Z,6.51
2023-01-12T20:36:01.527Z,6.55
2023-01-12T20:41:02.401Z,6.60
2023-01-12T20:46:02.003Z,6.65
2023-01-12T20:51:03.423Z,6.68
2023-01-12T20:56:04.989Z,6.72
2023-01-12T21:01:09.255Z,6.75
2023-01-12T21:06:13.893Z,6.79
2023-01-12T21:11:15.176Z,6.82
2023-01-12T21:16:19.742Z,6.84
2023-01-12T21:21:18.414Z,6.87
2023-01-12T21:26:17.934Z,6.91
2023-01-12T21:31:17.934Z,6.94
2023-01-12T21:36:20.054Z,6.97
2023-01-12T21:41:23.432Z,6.99
2023-01-12T21:46:24.186Z,7.02
2023-01-12T21:51:23.705Z,7.05
2023-01-12T21:56:23.060Z,7.08
2023-01-12T22:01:22.614Z,7.09
2023-01-12T22:06:22.026Z,7.12
2023-01-12T22:11:21.492Z,7.15
2023-01-12T22:16:21.178Z,7.16
2023-01-12T22:21:22.486Z,7.16
2023-01-12T22:26:22.258Z,7.17
2023-01-12T22:31:24.268Z,7.18
2023-01-12T22:36:23.844Z,7.19
2023-01-12T22:41:24.970Z,7.19
2023-01-12T22:46:34.199Z,7.20
2023-01-12T22:51:33.633Z,7.21
2023-01-12T22:56:33.177Z,7.20
2023-01-12T23:01:33.671Z,7.19
2023-01-12T23:06:37.371Z,7.19
2023-01-12T23:11:36.367Z,7.18
2023-01-12T23:16:35.484Z,7.17
2023-01-12T23:21:34.722Z,7.15
2023-01-12T23:26:35.620Z,7.15
2023-01-12T23:31:37.497Z,7.14
2023-01-12T23:36:37.327Z,7.13
2023-01-12T23:41:39.350Z,7.12
2023-01-12T23:46:43.196Z,7.12
2023-01-12T23:51:43.309Z,7.11
2023-01-12T23:56:42.610Z,7.11
